sensor_id;sensor_type;location;lat;lon;timestamp;temperature;humidity
32428;DHT22;18882;50.952;4.366;2023-05-20T00:00:57;13.00;99.90
32428;DHT22;18882;50.952;4.366;2023-05-20T00:03:24;12.90;99.90
32428;DHT22;18882;50.952;4.366;2023-05-20T00:05:50;12.90;99.90
32428;DHT22;18882;50.952;4.366;2023-05-20T00:08:17;12.90;99.90
32428;DHT22;18882;50.952;4.366;2023-05-20T00:10:44;12.90;99.90
32428;DHT22;18882;50.952;4.366;2023-05-20T00:13:13;12.80;99.90
32428;DHT22;18882;50.952;4.366;2023-05-20T00:15:41;12.80;99.90
32428;DHT22;18882;50.952;4.366;2023-05-20T00:18:11;12.80;99.90
32428;DHT22;18882;50.952;4.366;2023-05-20T00:20:38;12.70;99.90
32428;DHT22;18882;50.952;4.366;2023-05-20T00:23:03;12.70;99.90
32428;DHT22;18882;50.952;4.366;2023-05-20T00:25:34;12.70;99.90
32428;DHT22;18882;50.952;4.366;2023-05-20T00:27:59;12.70;99.90
32428;DHT22;18882;50.952;4.366;2023-05-20T00:30:25;12.60;99.90
32428;DHT22;18882;50.952;4.366;2023-05-20T00:32:52;12.70;99.90
32428;DHT22;18882;50.952;4.366;2023-05-20T00:35:19;12.60;99.90
32428;DHT22;18882;50.952;4.366;2023-05-20T00:37:44;12.60;99.90
32428;DHT22;18882;50.952;4.366;2023-05-20T00:40:10;12.60;99.90
32428;DHT22;18882;50.952;4.366;2023-05-20T00:42:38;12.50;99.90
32428;DHT22;18882;50.952;4.366;2023-05-20T00:45:05;12.50;99.90
32428;DHT22;18882;50.952;4.366;2023-05-20T00:47:32;12.50;99.90
32428;DHT22;18882;50.952;4.366;2023-05-20T00:49:59;12.50;99.90
32428;DHT22;18882;50.952;4.366;2023-05-20T00:52:27;12.40;99.90
32428;DHT22;18882;50.952;4.366;2023-05-20T00:54:53;12.40;99.90
32428;DHT22;18882;50.952;4.366;2023-05-20T00:57:24;12.40;99.90
32428;DHT22;18882;50.952;4.366;2023-05-20T00:59:50;12.30;99.90
32428;DHT22;18882;50.952;4.366;2023-05-20T01:02:16;12.30;99.90
32428;DHT22;18882;50.952;4.366;2023-05-20T01:04:42;12.30;99.90
32428;DHT22;18882;50.952;4.366;2023-05-20T01:07:16;12.30;99.90
32428;DHT22;18882;50.952;4.366;2023-05-20T01:09:45;12.20;99.90
32428;DHT22;18882;50.952;4.366;2023-05-20T01:12:15;12.20;99.90
32428;DHT22;18882;50.952;4.366;2023-05-20T01:14:53;12.10;99.90
32428;DHT22;18882;50.952;4.366;2023-05-20T01:17:24;12.10;99.90
32428;DHT22;18882;50.952;4.366;2023-05-20T01:19:56;12.00;99.90
32428;DHT22;18882;50.952;4.366;2023-05-20T01:22:27;12.00;99.90
32428;DHT22;18882;50.952;4.366;2023-05-20T01:24:57;11.90;99.90
32428;DHT22;18882;50.952;4.366;2023-05-20T01:27:24;12.00;99.90
32428;DHT22;18882;50.952;4.366;2023-05-20T01:29:51;11.90;99.90
32428;DHT22;18882;50.952;4.366;2023-05-20T01:32:45;11.80;99.90
32428;DHT22;18882;50.952;4.366;2023-05-20T01:35:12;11.80;99.90
32428;DHT22;18882;50.952;4.366;2023-05-20T01:37:39;11.80;99.90
32428;DHT22;18882;50.952;4.366;2023-05-20T01:40:15;11.80;99.90
32428;DHT22;18882;50.952;4.366;2023-05-20T01:42:43;11.70;99.90
32428;DHT22;18882;50.952;4.366;2023-05-20T01:45:10;11.60;99.90
32428;DHT22;18882;50.952;4.366;2023-05-20T01:47:36;11.60;99.90
32428;DHT22;18882;50.952;4.366;2023-05-20T01:50:02;11.60;99.90
32428;DHT22;18882;50.952;4.366;2023-05-20T01:52:30;11.60;99.90
32428;DHT22;18882;50.952;4.366;2023-05-20T01:54:56;11.60;99.90
32428;DHT22;18882;50.952;4.366;2023-05-20T01:57:22;11.60;99.90
32428;DHT22;18882;50.952;4.366;2023-05-20T01:59:49;11.60;99.90
32428;DHT22;18882;50.952;4.366;2023-05-20T02:02:19;11.50;99.90
32428;DHT22;18882;50.952;4.366;2023-05-20T02:04:47;11.50;99.90
32428;DHT22;18882;50.952;4.366;2023-05-20T02:07:17;11.40;99.90
32428;DHT22;18882;50.952;4.366;2023-05-20T02:09:43;11.50;99.90
32428;DHT22;18882;50.952;4.366;2023-05-20T02:12:09;11.50;99.90
32428;DHT22;18882;50.952;4.366;2023-05-20T02:14:48;11.40;99.90
32428;DHT22;18882;50.952;4.366;2023-05-20T02:17:18;11.30;99.90
32428;DHT22;18882;50.952;4.366;2023-05-20T02:19:44;11.30;99.90
32428;DHT22;18882;50.952;4.366;2023-05-20T02:22:13;11.30;99.90
32428;DHT22;18882;50.952;4.366;2023-05-20T02:24:39;11.30;99.90
32428;DHT22;18882;50.952;4.366;2023-05-20T02:27:06;11.30;99.90
32428;DHT22;18882;50.952;4.366;2023-05-20T02:29:31;11.40;99.90
32428;DHT22;18882;50.952;4.366;2023-05-20T02:31:59;11.40;99.90
32428;DHT22;18882;50.952;4.366;2023-05-20T02:34:25;11.40;99.90
32428;DHT22;18882;50.952;4.366;2023-05-20T02:36:51;11.30;99.90
32428;DHT22;18882;50.952;4.366;2023-05-20T02:39:17;11.30;99.90
32428;DHT22;18882;50.952;4.366;2023-05-20T02:41:43;11.20;99.90
32428;DHT22;18882;50.952;4.366;2023-05-20T02:44:09;11.30;99.90
32428;DHT22;18882;50.952;4.366;2023-05-20T02:46:34;11.40;99.90
32428;DHT22;18882;50.952;4.366;2023-05-20T02:49:00;11.30;99.90
32428;DHT22;18882;50.952;4.366;2023-05-20T02:51:26;11.20;99.90
32428;DHT22;18882;50.952;4.366;2023-05-20T02:53:51;11.20;99.90
32428;DHT22;18882;50.952;4.366;2023-05-20T02:56:17;11.10;99.90
32428;DHT22;18882;50.952;4.366;2023-05-20T02:58:54;11.10;99.90
32428;DHT22;18882;50.952;4.366;2023-05-20T03:01:28;11.10;99.90
32428;DHT22;18882;50.952;4.366;2023-05-20T03:04:03;11.10;99.90
32428;DHT22;18882;50.952;4.366;2023-05-20T03:06:29;11.10;99.90
32428;DHT22;18882;50.952;4.366;2023-05-20T03:08:56;11.00;99.90
32428;DHT22;18882;50.952;4.366;2023-05-20T03:11:25;10.90;99.90
32428;DHT22;18882;50.952;4.366;2023-05-20T03:13:57;10.90;99.90
32428;DHT22;18882;50.952;4.366;2023-05-20T03:16:22;10.90;99.90
32428;DHT22;18882;50.952;4.366;2023-05-20T03:18:49;10.90;99.90
32428;DHT22;18882;50.952;4.366;2023-05-20T03:21:15;11.00;99.90
32428;DHT22;18882;50.952;4.366;2023-05-20T03:23:41;11.10;99.90
32428;DHT22;18882;50.952;4.366;2023-05-20T03:26:06;11.10;99.90
32428;DHT22;18882;50.952;4.366;2023-05-20T03:28:32;11.00;99.90
32428;DHT22;18882;50.952;4.366;2023-05-20T03:30:57;10.90;99.90
32428;DHT22;18882;50.952;4.366;2023-05-20T03:33:23;10.90;99.90
32428;DHT22;18882;50.952;4.366;2023-05-20T03:35:50;10.90;99.90
32428;DHT22;18882;50.952;4.366;2023-05-20T03:38:16;10.90;99.90
32428;DHT22;18882;50.952;4.366;2023-05-20T03:40:43;11.00;99.90
32428;DHT22;18882;50.952;4.366;2023-05-20T03:43:08;11.00;99.90
32428;DHT22;18882;50.952;4.366;2023-05-20T03:45:37;11.10;99.90
32428;DHT22;18882;50.952;4.366;2023-05-20T03:48:03;11.00;99.90
32428;DHT22;18882;50.952;4.366;2023-05-20T03:50:30;10.90;99.90
32428;DHT22;18882;50.952;4.366;2023-05-20T03:52:55;10.90;99.90
32428;DHT22;18882;50.952;4.366;2023-05-20T03:55:27;10.80;99.90
32428;DHT22;18882;50.952;4.366;2023-05-20T03:58:04;10.80;99.90
32428;DHT22;18882;50.952;4.366;2023-05-20T04:00:30;10.90;99.90
32428;DHT22;18882;50.952;4.366;2023-05-20T04:02:57;11.00;99.90
32428;DHT22;18882;50.952;4.366;2023-05-20T04:05:23;11.10;99.90
32428;DHT22;18882;50.952;4.366;2023-05-20T04:07:50;11.00;99.90
32428;DHT22;18882;50.952;4.366;2023-05-20T04:10:18;10.90;99.90
32428;DHT22;18882;50.952;4.366;2023-05-20T04:12:45;11.00;99.90
32428;DHT22;18882;50.952;4.366;2023-05-20T04:15:11;11.00;99.90
32428;DHT22;18882;50.952;4.366;2023-05-20T04:17:37;11.00;99.90
32428;DHT22;18882;50.952;4.366;2023-05-20T04:20:05;11.00;99.90
32428;DHT22;18882;50.952;4.366;2023-05-20T04:22:32;11.10;99.90
32428;DHT22;18882;50.952;4.366;2023-05-20T04:24:58;11.10;99.90
32428;DHT22;18882;50.952;4.366;2023-05-20T04:27:24;11.10;99.90
32428;DHT22;18882;50.952;4.366;2023-05-20T04:29:51;10.90;99.90
32428;DHT22;18882;50.952;4.366;2023-05-20T04:32:18;10.90;99.90
32428;DHT22;18882;50.952;4.366;2023-05-20T04:34:44;10.80;99.90
32428;DHT22;18882;50.952;4.366;2023-05-20T04:37:11;10.70;99.90
32428;DHT22;18882;50.952;4.366;2023-05-20T04:39:39;10.80;99.90
32428;DHT22;18882;50.952;4.366;2023-05-20T04:42:04;10.80;99.90
32428;DHT22;18882;50.952;4.366;2023-05-20T04:44:32;10.80;99.90
32428;DHT22;18882;50.952;4.366;2023-05-20T04:47:00;10.90;99.90
32428;DHT22;18882;50.952;4.366;2023-05-20T04:49:26;10.90;99.90
32428;DHT22;18882;50.952;4.366;2023-05-20T04:51:53;10.90;99.90
32428;DHT22;18882;50.952;4.366;2023-05-20T04:54:20;11.00;99.90
32428;DHT22;18882;50.952;4.366;2023-05-20T04:56:46;11.00;99.90
32428;DHT22;18882;50.952;4.366;2023-05-20T04:59:12;11.10;99.90
32428;DHT22;18882;50.952;4.366;2023-05-20T05:01:40;11.20;99.90
32428;DHT22;18882;50.952;4.366;2023-05-20T05:04:08;11.20;99.90
32428;DHT22;18882;50.952;4.366;2023-05-20T05:06:33;11.10;99.90
32428;DHT22;18882;50.952;4.366;2023-05-20T05:08:59;11.30;99.90
32428;DHT22;18882;50.952;4.366;2023-05-20T05:11:25;11.30;99.90
32428;DHT22;18882;50.952;4.366;2023-05-20T05:13:51;11.30;99.90
32428;DHT22;18882;50.952;4.366;2023-05-20T05:16:17;11.40;99.90
32428;DHT22;18882;50.952;4.366;2023-05-20T05:18:42;11.40;99.90
32428;DHT22;18882;50.952;4.366;2023-05-20T05:21:08;11.50;99.90
32428;DHT22;18882;50.952;4.366;2023-05-20T05:23:34;11.60;99.90
32428;DHT22;18882;50.952;4.366;2023-05-20T05:26:00;11.50;99.90
32428;DHT22;18882;50.952;4.366;2023-05-20T05:28:26;11.60;99.90
32428;DHT22;18882;50.952;4.366;2023-05-20T05:30:53;11.60;99.90
32428;DHT22;18882;50.952;4.366;2023-05-20T05:33:20;11.80;99.90
32428;DHT22;18882;50.952;4.366;2023-05-20T05:35:45;11.90;99.90
32428;DHT22;18882;50.952;4.366;2023-05-20T05:38:12;12.00;99.90
32428;DHT22;18882;50.952;4.366;2023-05-20T05:40:46;12.00;99.90
32428;DHT22;18882;50.952;4.366;2023-05-20T05:43:13;12.10;99.90
32428;DHT22;18882;50.952;4.366;2023-05-20T05:45:38;12.20;99.90
32428;DHT22;18882;50.952;4.366;2023-05-20T05:48:06;12.20;99.90
32428;DHT22;18882;50.952;4.366;2023-05-20T05:50:37;12.30;99.90
32428;DHT22;18882;50.952;4.366;2023-05-20T05:53:09;12.40;99.90
32428;DHT22;18882;50.952;4.366;2023-05-20T05:55:53;12.50;99.90
32428;DHT22;18882;50.952;4.366;2023-05-20T05:58:19;12.70;99.90
32428;DHT22;18882;50.952;4.366;2023-05-20T06:00:55;12.70;99.90
32428;DHT22;18882;50.952;4.366;2023-05-20T06:03:21;12.80;99.90
32428;DHT22;18882;50.952;4.366;2023-05-20T06:05:48;12.90;99.90
32428;DHT22;18882;50.952;4.366;2023-05-20T06:08:13;12.80;99.90
32428;DHT22;18882;50.952;4.366;2023-05-20T06:10:39;12.80;99.90
32428;DHT22;18882;50.952;4.366;2023-05-20T06:13:06;12.80;99.90
32428;DHT22;18882;50.952;4.366;2023-05-20T06:15:33;12.80;99.90
32428;DHT22;18882;50.952;4.366;2023-05-20T06:17:58;12.90;99.90
32428;DHT22;18882;50.952;4.366;2023-05-20T06:20:24;13.00;99.90
32428;DHT22;18882;50.952;4.366;2023-05-20T06:22:56;13.10;99.90
32428;DHT22;18882;50.952;4.366;2023-05-20T06:25:40;13.20;99.90
32428;DHT22;18882;50.952;4.366;2023-05-20T06:28:08;13.10;99.90
32428;DHT22;18882;50.952;4.366;2023-05-20T06:30:34;13.20;99.90
32428;DHT22;18882;50.952;4.366;2023-05-20T06:33:03;13.40;99.90
32428;DHT22;18882;50.952;4.366;2023-05-20T06:35:34;13.50;99.90
32428;DHT22;18882;50.952;4.366;2023-05-20T06:38:01;13.60;99.90
32428;DHT22;18882;50.952;4.366;2023-05-20T06:40:31;13.70;99.90
32428;DHT22;18882;50.952;4.366;2023-05-20T06:42:58;13.70;99.90
32428;DHT22;18882;50.952;4.366;2023-05-20T06:45:52;13.80;99.90
32428;DHT22;18882;50.952;4.366;2023-05-20T06:48:35;13.80;99.90
32428;DHT22;18882;50.952;4.366;2023-05-20T06:51:13;13.90;99.90
32428;DHT22;18882;50.952;4.366;2023-05-20T06:53:40;14.10;99.90
32428;DHT22;18882;50.952;4.366;2023-05-20T06:56:07;14.20;99.90
32428;DHT22;18882;50.952;4.366;2023-05-20T06:58:38;14.30;99.90
32428;DHT22;18882;50.952;4.366;2023-05-20T07:01:03;14.40;99.90
32428;DHT22;18882;50.952;4.366;2023-05-20T07:03:29;14.40;99.90
32428;DHT22;18882;50.952;4.366;2023-05-20T07:05:55;14.40;99.90
32428;DHT22;18882;50.952;4.366;2023-05-20T07:08:21;14.50;99.90
32428;DHT22;18882;50.952;4.366;2023-05-20T07:10:46;14.60;99.90
32428;DHT22;18882;50.952;4.366;2023-05-20T07:13:12;14.70;99.90
32428;DHT22;18882;50.952;4.366;2023-05-20T07:15:38;14.80;99.90
32428;DHT22;18882;50.952;4.366;2023-05-20T07:18:04;14.80;99.90
32428;DHT22;18882;50.952;4.366;2023-05-20T07:20:29;14.90;99.90
32428;DHT22;18882;50.952;4.366;2023-05-20T07:22:55;14.90;99.90
32428;DHT22;18882;50.952;4.366;2023-05-20T07:25:21;15.00;99.90
32428;DHT22;18882;50.952;4.366;2023-05-20T07:27:47;15.00;99.90
32428;DHT22;18882;50.952;4.366;2023-05-20T07:30:12;15.20;99.90
32428;DHT22;18882;50.952;4.366;2023-05-20T07:32:39;15.30;99.90
32428;DHT22;18882;50.952;4.366;2023-05-20T07:35:05;15.30;99.90
32428;DHT22;18882;50.952;4.366;2023-05-20T07:37:31;15.30;99.90
32428;DHT22;18882;50.952;4.366;2023-05-20T07:39:56;15.40;99.90
32428;DHT22;18882;50.952;4.366;2023-05-20T07:42:22;15.50;99.90
32428;DHT22;18882;50.952;4.366;2023-05-20T07:44:48;15.70;99.90
32428;DHT22;18882;50.952;4.366;2023-05-20T07:47:13;15.80;99.90
32428;DHT22;18882;50.952;4.366;2023-05-20T07:49:39;15.80;99.90
32428;DHT22;18882;50.952;4.366;2023-05-20T07:52:05;15.90;99.90
32428;DHT22;18882;50.952;4.366;2023-05-20T07:54:33;16.00;99.90
32428;DHT22;18882;50.952;4.366;2023-05-20T07:56:59;16.10;99.90
32428;DHT22;18882;50.952;4.366;2023-05-20T07:59:25;16.20;99.90
32428;DHT22;18882;50.952;4.366;2023-05-20T08:01:51;16.20;99.90
32428;DHT22;18882;50.952;4.366;2023-05-20T08:04:16;16.30;99.90
32428;DHT22;18882;50.952;4.366;2023-05-20T08:06:42;16.50;99.90
32428;DHT22;18882;50.952;4.366;2023-05-20T08:09:09;16.50;99.90
32428;DHT22;18882;50.952;4.366;2023-05-20T08:11:34;16.60;99.90
32428;DHT22;18882;50.952;4.366;2023-05-20T08:14:00;16.60;99.90
32428;DHT22;18882;50.952;4.366;2023-05-20T08:16:27;16.70;99.90
32428;DHT22;18882;50.952;4.366;2023-05-20T08:18:52;16.80;99.90
32428;DHT22;18882;50.952;4.366;2023-05-20T08:21:18;16.90;99.90
32428;DHT22;18882;50.952;4.366;2023-05-20T08:23:44;16.80;99.90
32428;DHT22;18882;50.952;4.366;2023-05-20T08:26:09;16.80;99.90
32428;DHT22;18882;50.952;4.366;2023-05-20T08:28:35;16.80;99.90
32428;DHT22;18882;50.952;4.366;2023-05-20T08:31:04;16.80;99.90
32428;DHT22;18882;50.952;4.366;2023-05-20T08:33:30;17.10;99.90
32428;DHT22;18882;50.952;4.366;2023-05-20T08:35:55;17.10;99.90
32428;DHT22;18882;50.952;4.366;2023-05-20T08:38:21;17.10;99.90
32428;DHT22;18882;50.952;4.366;2023-05-20T08:40:54;17.20;99.90
32428;DHT22;18882;50.952;4.366;2023-05-20T08:43:21;17.30;99.90
32428;DHT22;18882;50.952;4.366;2023-05-20T08:45:48;17.30;99.90
32428;DHT22;18882;50.952;4.366;2023-05-20T08:48:16;17.50;99.90
32428;DHT22;18882;50.952;4.366;2023-05-20T08:50:43;17.50;99.90
32428;DHT22;18882;50.952;4.366;2023-05-20T08:53:09;17.50;99.90
32428;DHT22;18882;50.952;4.366;2023-05-20T08:55:45;17.60;99.90
32428;DHT22;18882;50.952;4.366;2023-05-20T08:58:11;17.60;99.90
32428;DHT22;18882;50.952;4.366;2023-05-20T09:00:39;17.70;99.90
32428;DHT22;18882;50.952;4.366;2023-05-20T09:03:06;17.80;99.90
32428;DHT22;18882;50.952;4.366;2023-05-20T09:05:33;17.70;99.90
32428;DHT22;18882;50.952;4.366;2023-05-20T09:08:09;17.70;99.90
32428;DHT22;18882;50.952;4.366;2023-05-20T09:10:37;17.90;99.90
32428;DHT22;18882;50.952;4.366;2023-05-20T09:13:03;18.00;99.90
32428;DHT22;18882;50.952;4.366;2023-05-20T09:15:30;18.00;99.90
32428;DHT22;18882;50.952;4.366;2023-05-20T09:17:59;18.10;99.90
32428;DHT22;18882;50.952;4.366;2023-05-20T09:20:27;18.40;99.90
32428;DHT22;18882;50.952;4.366;2023-05-20T09:23:00;18.20;99.90
32428;DHT22;18882;50.952;4.366;2023-05-20T09:25:26;18.20;99.90
32428;DHT22;18882;50.952;4.366;2023-05-20T09:27:52;18.20;99.90
32428;DHT22;18882;50.952;4.366;2023-05-20T09:30:20;18.00;99.90
32428;DHT22;18882;50.952;4.366;2023-05-20T09:32:55;17.90;99.90
32428;DHT22;18882;50.952;4.366;2023-05-20T09:35:25;17.90;99.90
32428;DHT22;18882;50.952;4.366;2023-05-20T09:37:55;18.10;99.90
32428;DHT22;18882;50.952;4.366;2023-05-20T09:40:27;18.20;99.90
32428;DHT22;18882;50.952;4.366;2023-05-20T09:42:56;18.40;99.90
32428;DHT22;18882;50.952;4.366;2023-05-20T09:45:22;18.40;99.90
32428;DHT22;18882;50.952;4.366;2023-05-20T09:47:53;18.50;99.90
32428;DHT22;18882;50.952;4.366;2023-05-20T09:50:20;18.30;99.90
32428;DHT22;18882;50.952;4.366;2023-05-20T09:52:47;18.20;99.90
32428;DHT22;18882;50.952;4.366;2023-05-20T09:55:14;18.40;99.90
32428;DHT22;18882;50.952;4.366;2023-05-20T09:57:41;18.80;99.90
32428;DHT22;18882;50.952;4.366;2023-05-20T10:00:07;18.80;99.90
32428;DHT22;18882;50.952;4.366;2023-05-20T10:02:34;18.60;99.90
32428;DHT22;18882;50.952;4.366;2023-05-20T10:05:05;18.40;99.90
32428;DHT22;18882;50.952;4.366;2023-05-20T10:07:46;18.40;99.90
32428;DHT22;18882;50.952;4.366;2023-05-20T10:20:47;19.40;99.90
32428;DHT22;18882;50.952;4.366;2023-05-20T10:23:23;19.20;99.90
32428;DHT22;18882;50.952;4.366;2023-05-20T10:25:53;18.90;99.90
32428;DHT22;18882;50.952;4.366;2023-05-20T10:28:31;19.00;99.90
32428;DHT22;18882;50.952;4.366;2023-05-20T10:30:58;19.10;99.90
32428;DHT22;18882;50.952;4.366;2023-05-20T10:33:27;19.40;99.90
32428;DHT22;18882;50.952;4.366;2023-05-20T10:35:57;19.40;99.90
32428;DHT22;18882;50.952;4.366;2023-05-20T10:38:23;19.10;99.90
32428;DHT22;18882;50.952;4.366;2023-05-20T10:40:49;18.80;99.90
32428;DHT22;18882;50.952;4.366;2023-05-20T10:43:24;18.90;99.90
32428;DHT22;18882;50.952;4.366;2023-05-20T10:45:56;19.00;99.90
32428;DHT22;18882;50.952;4.366;2023-05-20T10:48:30;18.70;99.90
32428;DHT22;18882;50.952;4.366;2023-05-20T10:51:01;19.00;99.90
32428;DHT22;18882;50.952;4.366;2023-05-20T10:53:38;19.00;99.90
32428;DHT22;18882;50.952;4.366;2023-05-20T10:56:14;19.20;99.90
32428;DHT22;18882;50.952;4.366;2023-05-20T10:58:41;19.30;99.90
32428;DHT22;18882;50.952;4.366;2023-05-20T11:01:07;19.40;99.90
32428;DHT22;18882;50.952;4.366;2023-05-20T11:03:34;19.30;99.90
32428;DHT22;18882;50.952;4.366;2023-05-20T11:06:00;19.20;99.90
32428;DHT22;18882;50.952;4.366;2023-05-20T11:08:29;19.20;99.90
32428;DHT22;18882;50.952;4.366;2023-05-20T11:10:58;19.20;99.90
32428;DHT22;18882;50.952;4.366;2023-05-20T11:13:24;19.30;99.90
32428;DHT22;18882;50.952;4.366;2023-05-20T11:15:50;19.20;99.90
32428;DHT22;18882;50.952;4.366;2023-05-20T11:18:15;19.20;99.90
32428;DHT22;18882;50.952;4.366;2023-05-20T11:20:42;19.30;99.90
32428;DHT22;18882;50.952;4.366;2023-05-20T11:23:12;19.40;99.90
32428;DHT22;18882;50.952;4.366;2023-05-20T11:25:38;19.60;99.90
32428;DHT22;18882;50.952;4.366;2023-05-20T11:28:03;19.80;99.90
32428;DHT22;18882;50.952;4.366;2023-05-20T11:30:32;19.70;99.90
32428;DHT22;18882;50.952;4.366;2023-05-20T11:33:02;19.70;99.90
32428;DHT22;18882;50.952;4.366;2023-05-20T11:35:30;20.00;99.90
32428;DHT22;18882;50.952;4.366;2023-05-20T11:38:05;19.80;99.90
32428;DHT22;18882;50.952;4.366;2023-05-20T11:40:34;19.60;99.90
32428;DHT22;18882;50.952;4.366;2023-05-20T11:43:01;19.70;99.90
32428;DHT22;18882;50.952;4.366;2023-05-20T11:45:54;19.90;99.90
32428;DHT22;18882;50.952;4.366;2023-05-20T11:48:21;19.90;99.90
32428;DHT22;18882;50.952;4.366;2023-05-20T11:50:47;20.00;99.90
32428;DHT22;18882;50.952;4.366;2023-05-20T11:53:17;20.00;99.90
32428;DHT22;18882;50.952;4.366;2023-05-20T11:58:21;20.30;99.90
32428;DHT22;18882;50.952;4.366;2023-05-20T12:00:47;20.40;99.90
32428;DHT22;18882;50.952;4.366;2023-05-20T12:03:13;20.30;99.90
32428;DHT22;18882;50.952;4.366;2023-05-20T12:05:39;20.20;99.90
32428;DHT22;18882;50.952;4.366;2023-05-20T12:08:05;20.20;99.90
32428;DHT22;18882;50.952;4.366;2023-05-20T12:10:31;20.40;99.90
32428;DHT22;18882;50.952;4.366;2023-05-20T12:12:57;20.40;99.90
32428;DHT22;18882;50.952;4.366;2023-05-20T12:15:23;20.50;99.90
32428;DHT22;18882;50.952;4.366;2023-05-20T12:17:52;20.60;99.90
32428;DHT22;18882;50.952;4.366;2023-05-20T12:20:20;20.50;99.90
32428;DHT22;18882;50.952;4.366;2023-05-20T12:22:46;20.30;99.90
32428;DHT22;18882;50.952;4.366;2023-05-20T12:25:14;20.30;99.90
32428;DHT22;18882;50.952;4.366;2023-05-20T12:27:41;20.40;99.90
32428;DHT22;18882;50.952;4.366;2023-05-20T12:30:08;20.40;99.90
32428;DHT22;18882;50.952;4.366;2023-05-20T12:32:37;20.40;99.90
32428;DHT22;18882;50.952;4.366;2023-05-20T12:35:03;20.50;99.90
32428;DHT22;18882;50.952;4.366;2023-05-20T12:37:29;20.30;99.90
32428;DHT22;18882;50.952;4.366;2023-05-20T12:39:56;20.10;99.90
32428;DHT22;18882;50.952;4.366;2023-05-20T12:42:22;20.10;99.90
32428;DHT22;18882;50.952;4.366;2023-05-20T12:44:48;20.10;99.90
32428;DHT22;18882;50.952;4.366;2023-05-20T12:47:14;20.00;99.90
32428;DHT22;18882;50.952;4.366;2023-05-20T12:49:39;20.20;99.90
32428;DHT22;18882;50.952;4.366;2023-05-20T12:52:05;20.20;99.90
32428;DHT22;18882;50.952;4.366;2023-05-20T12:54:31;20.30;99.90
32428;DHT22;18882;50.952;4.366;2023-05-20T12:56:58;20.40;99.90
32428;DHT22;18882;50.952;4.366;2023-05-20T12:59:23;20.50;99.90
32428;DHT22;18882;50.952;4.366;2023-05-20T13:01:49;20.60;99.90
32428;DHT22;18882;50.952;4.366;2023-05-20T13:04:15;20.50;99.90
32428;DHT22;18882;50.952;4.366;2023-05-20T13:06:41;20.60;99.90
32428;DHT22;18882;50.952;4.366;2023-05-20T13:09:07;20.90;99.90
32428;DHT22;18882;50.952;4.366;2023-05-20T13:11:33;21.00;99.90
32428;DHT22;18882;50.952;4.366;2023-05-20T13:13:59;20.70;99.90
32428;DHT22;18882;50.952;4.366;2023-05-20T13:16:25;20.30;99.90
32428;DHT22;18882;50.952;4.366;2023-05-20T13:18:51;20.30;99.90
32428;DHT22;18882;50.952;4.366;2023-05-20T13:21:16;20.30;99.90
32428;DHT22;18882;50.952;4.366;2023-05-20T13:23:43;20.30;99.90
32428;DHT22;18882;50.952;4.366;2023-05-20T13:26:09;20.30;99.90
32428;DHT22;18882;50.952;4.366;2023-05-20T13:28:35;20.30;99.90
32428;DHT22;18882;50.952;4.366;2023-05-20T13:31:03;20.40;99.90
32428;DHT22;18882;50.952;4.366;2023-05-20T13:33:29;20.20;99.90
32428;DHT22;18882;50.952;4.366;2023-05-20T13:35:55;19.90;99.90
32428;DHT22;18882;50.952;4.366;2023-05-20T13:38:21;19.80;99.90
32428;DHT22;18882;50.952;4.366;2023-05-20T13:40:47;19.90;99.90
32428;DHT22;18882;50.952;4.366;2023-05-20T13:43:13;20.20;99.90
32428;DHT22;18882;50.952;4.366;2023-05-20T13:45:39;20.30;99.90
32428;DHT22;18882;50.952;4.366;2023-05-20T13:48:05;20.40;99.90
32428;DHT22;18882;50.952;4.366;2023-05-20T13:50:31;20.40;99.90
32428;DHT22;18882;50.952;4.366;2023-05-20T13:52:56;20.60;99.90
32428;DHT22;18882;50.952;4.366;2023-05-20T13:55:22;20.70;99.90
32428;DHT22;18882;50.952;4.366;2023-05-20T13:57:48;20.90;99.90
32428;DHT22;18882;50.952;4.366;2023-05-20T14:00:14;20.90;99.90
32428;DHT22;18882;50.952;4.366;2023-05-20T14:02:40;20.90;99.90
32428;DHT22;18882;50.952;4.366;2023-05-20T14:05:06;20.80;99.90
32428;DHT22;18882;50.952;4.366;2023-05-20T14:07:32;20.80;99.90
32428;DHT22;18882;50.952;4.366;2023-05-20T14:09:57;20.90;99.90
32428;DHT22;18882;50.952;4.366;2023-05-20T14:12:23;21.00;99.90
32428;DHT22;18882;50.952;4.366;2023-05-20T14:14:49;21.20;99.90
32428;DHT22;18882;50.952;4.366;2023-05-20T14:17:15;21.20;99.90
32428;DHT22;18882;50.952;4.366;2023-05-20T14:19:43;21.30;99.90
32428;DHT22;18882;50.952;4.366;2023-05-20T14:22:09;21.10;99.90
32428;DHT22;18882;50.952;4.366;2023-05-20T14:24:34;20.90;99.90
32428;DHT22;18882;50.952;4.366;2023-05-20T14:27:00;20.70;99.90
32428;DHT22;18882;50.952;4.366;2023-05-20T14:29:26;20.60;99.90
32428;DHT22;18882;50.952;4.366;2023-05-20T14:31:51;20.50;99.90
32428;DHT22;18882;50.952;4.366;2023-05-20T14:34:17;20.50;99.90
32428;DHT22;18882;50.952;4.366;2023-05-20T14:36:43;20.40;99.90
32428;DHT22;18882;50.952;4.366;2023-05-20T14:39:08;20.60;99.90
32428;DHT22;18882;50.952;4.366;2023-05-20T14:41:34;20.50;99.90
32428;DHT22;18882;50.952;4.366;2023-05-20T14:44:00;20.40;99.90
32428;DHT22;18882;50.952;4.366;2023-05-20T14:46:26;20.40;99.90
32428;DHT22;18882;50.952;4.366;2023-05-20T14:48:51;20.40;99.90
32428;DHT22;18882;50.952;4.366;2023-05-20T14:51:17;20.50;99.90
32428;DHT22;18882;50.952;4.366;2023-05-20T14:53:43;20.40;99.90
32428;DHT22;18882;50.952;4.366;2023-05-20T14:56:08;20.30;99.90
32428;DHT22;18882;50.952;4.366;2023-05-20T14:58:34;20.30;99.90
32428;DHT22;18882;50.952;4.366;2023-05-20T15:01:00;20.40;99.90
32428;DHT22;18882;50.952;4.366;2023-05-20T15:03:26;20.40;99.90
32428;DHT22;18882;50.952;4.366;2023-05-20T15:05:52;20.30;99.90
32428;DHT22;18882;50.952;4.366;2023-05-20T15:08:18;20.40;99.90
32428;DHT22;18882;50.952;4.366;2023-05-20T15:10:44;20.40;99.90
32428;DHT22;18882;50.952;4.366;2023-05-20T15:13:10;20.50;99.90
32428;DHT22;18882;50.952;4.366;2023-05-20T15:15:35;20.60;99.90
32428;DHT22;18882;50.952;4.366;2023-05-20T15:18:01;20.60;99.90
32428;DHT22;18882;50.952;4.366;2023-05-20T15:20:27;20.60;99.90
32428;DHT22;18882;50.952;4.366;2023-05-20T15:22:53;20.50;99.90
32428;DHT22;18882;50.952;4.366;2023-05-20T15:25:18;20.40;99.90
32428;DHT22;18882;50.952;4.366;2023-05-20T15:27:44;20.50;99.90
32428;DHT22;18882;50.952;4.366;2023-05-20T15:30:10;20.40;99.90
32428;DHT22;18882;50.952;4.366;2023-05-20T15:32:36;20.50;99.90
32428;DHT22;18882;50.952;4.366;2023-05-20T15:35:02;20.50;99.90
32428;DHT22;18882;50.952;4.366;2023-05-20T15:37:28;20.40;99.90
32428;DHT22;18882;50.952;4.366;2023-05-20T15:39:54;20.50;99.90
32428;DHT22;18882;50.952;4.366;2023-05-20T15:42:20;20.40;99.90
32428;DHT22;18882;50.952;4.366;2023-05-20T15:44:45;20.30;99.90